createdAt,value
2018-08-25T00:04:49.806Z,14.68
2018-08-25T00:09:53.434Z,14.88
2018-08-25T00:14:56.976Z,14.86
2018-08-25T00:20:00.532Z,14.86
2018-08-25T00:25:04.206Z,14.86
2018-08-25T00:35:24.018Z,14.77
2018-08-25T00:40:27.494Z,14.86
2018-08-25T00:45:31.300Z,14.88
2018-08-25T00:50:34.880Z,14.91
2018-08-25T00:55:38.462Z,14.99
2018-08-25T01:00:42.321Z,15.00
2018-08-25T01:05:46.096Z,15.04
2018-08-25T01:10:49.671Z,14.99
2018-08-25T01:15:53.309Z,14.93
2018-08-25T01:20:57.270Z,14.86
2018-08-25T01:26:00.813Z,14.79
2018-08-25T01:31:04.319Z,14.88
2018-08-25T01:36:07.895Z,14.81
2018-08-25T01:41:11.432Z,14.80
2018-08-25T01:46:15.046Z,14.68
2018-08-25T01:51:18.550Z,14.66
2018-08-25T01:56:22.126Z,14.61
2018-08-25T02:01:29.831Z,14.60
2018-08-25T02:06:33.526Z,14.69
2018-08-25T02:11:37.171Z,14.65
2018-08-25T02:16:41.892Z,14.66
2018-08-25T02:21:45.636Z,14.67
2018-08-25T02:26:49.176Z,14.60
2018-08-25T02:31:52.896Z,14.50
2018-08-25T02:36:56.443Z,14.55
2018-08-25T02:42:00.560Z,14.59
2018-08-25T02:47:04.151Z,14.64
2018-08-25T02:52:07.629Z,14.63
2018-08-25T02:57:11.185Z,14.67
2018-08-25T03:02:14.775Z,14.68
2018-08-25T03:07:18.461Z,14.64
2018-08-25T03:12:21.957Z,14.66
2018-08-25T03:17:25.683Z,14.61
2018-08-25T03:22:29.251Z,14.78
2018-08-25T03:27:32.838Z,14.72
2018-08-25T03:32:36.453Z,14.63
2018-08-25T03:37:39.996Z,14.57
2018-08-25T03:42:43.600Z,14.46
2018-08-25T03:47:47.246Z,14.47
2018-08-25T03:52:50.725Z,14.48
2018-08-25T03:57:54.488Z,14.50
2018-08-25T04:02:58.976Z,14.57
2018-08-25T04:08:02.677Z,14.58
2018-08-25T04:13:07.625Z,14.57
2018-08-25T04:18:11.666Z,14.60
2018-08-25T04:23:15.341Z,14.63
2018-08-25T04:28:19.101Z,14.70
2018-08-25T04:33:23.331Z,14.68
2018-08-25T04:38:26.926Z,14.79
2018-08-25T04:43:30.490Z,14.87
2018-08-25T04:48:35.205Z,15.08
2018-08-25T04:53:38.955Z,15.10
2018-08-25T04:58:42.526Z,14.65
2018-08-25T05:03:46.164Z,13.80
2018-08-25T05:08:50.525Z,13.50
2018-08-25T05:13:54.656Z,13.35
2018-08-25T05:18:58.457Z,13.24
2018-08-25T05:24:02.834Z,13.04
2018-08-25T05:29:06.396Z,12.93
2018-08-25T05:34:09.880Z,12.99
2018-08-25T05:39:13.995Z,13.20
2018-08-25T05:44:17.773Z,13.27
2018-08-25T05:49:21.228Z,13.41
2018-08-25T05:54:24.798Z,13.44
2018-08-25T05:59:28.389Z,13.20
2018-08-25T06:04:31.963Z,13.51
2018-08-25T06:09:36.100Z,13.77
2018-08-25T06:14:40.344Z,13.79
2018-08-25T06:19:44.092Z,13.61
2018-08-25T06:24:47.632Z,13.29
2018-08-25T06:29:51.257Z,13.43
2018-08-25T06:34:54.647Z,13.68
2018-08-25T06:39:58.237Z,13.73
2018-08-25T06:45:01.993Z,13.59
2018-08-25T06:50:05.549Z,13.57
2018-08-25T06:55:09.017Z,13.89
2018-08-25T07:00:15.594Z,13.84
2018-08-25T07:05:19.421Z,14.01
2018-08-25T07:10:22.941Z,14.35
2018-08-25T07:15:26.411Z,14.33
2018-08-25T07:20:29.960Z,14.20
2018-08-25T07:25:33.496Z,14.09
2018-08-25T07:30:36.995Z,14.30
2018-08-25T07:35:40.461Z,14.12
2018-08-25T07:40:43.987Z,13.89
2018-08-25T07:45:49.106Z,13.71
2018-08-25T07:50:52.701Z,13.89
2018-08-25T07:55:56.142Z,14.19
2018-08-25T08:00:59.658Z,14.07
2018-08-25T08:06:03.169Z,13.76
2018-08-25T08:11:06.771Z,14.33
2018-08-25T08:16:10.450Z,14.91
2018-08-25T08:21:13.935Z,15.08
2018-08-25T08:26:17.643Z,15.36
2018-08-25T08:31:21.107Z,15.14
2018-08-25T08:36:24.662Z,15.06
2018-08-25T08:41:28.230Z,15.51
2018-08-25T08:46:35.181Z,15.61
2018-08-25T08:51:39.010Z,15.55
2018-08-25T08:56:42.518Z,15.81
2018-08-25T09:01:46.049Z,16.60
2018-08-25T09:06:49.606Z,17.13
2018-08-25T09:11:53.134Z,17.13
2018-08-25T09:16:56.632Z,16.61
2018-08-25T09:22:00.117Z,16.67
2018-08-25T09:27:03.626Z,16.44
2018-08-25T09:32:07.211Z,16.36
2018-08-25T09:37:10.786Z,15.95
2018-08-25T09:42:14.545Z,15.70
2018-08-25T09:47:18.268Z,14.26
2018-08-25T09:52:21.729Z,13.78
2018-08-25T09:57:25.307Z,13.81
2018-08-25T10:02:29.144Z,14.05
2018-08-25T10:07:32.790Z,14.43
2018-08-25T10:12:36.328Z,14.99
2018-08-25T10:17:39.841Z,14.83
2018-08-25T10:22:43.739Z,15.04
2018-08-25T10:27:47.293Z,14.82
2018-08-25T10:32:50.747Z,14.97
2018-08-25T10:37:54.277Z,14.89
2018-08-25T10:42:57.775Z,15.49
2018-08-25T10:48:01.572Z,15.73
2018-08-25T10:53:05.110Z,15.39
2018-08-25T10:58:08.633Z,15.07
2018-08-25T11:03:12.338Z,15.34
2018-08-25T11:08:16.062Z,15.94
2018-08-25T11:13:19.582Z,16.11
2018-08-25T11:18:23.117Z,16.54
2018-08-25T11:23:28.578Z,17.10
2018-08-25T11:28:32.299Z,16.89
2018-08-25T11:33:35.765Z,16.40
2018-08-25T11:38:39.546Z,16.83
2018-08-25T11:43:43.853Z,16.78
2018-08-25T11:48:47.600Z,17.54
2018-08-25T11:53:51.461Z,17.20
2018-08-25T11:58:54.997Z,17.23
2018-08-25T12:03:58.538Z,17.50
2018-08-25T12:09:02.312Z,17.61
2018-08-25T12:14:05.791Z,18.04
2018-08-25T12:19:09.310Z,18.24
2018-08-25T12:24:12.820Z,18.07
2018-08-25T12:29:16.409Z,18.51
2018-08-25T12:34:20.043Z,18.63
2018-08-25T12:39:23.647Z,18.59
2018-08-25T12:44:27.142Z,18.77
2018-08-25T12:49:30.660Z,19.17
2018-08-25T12:54:34.398Z,19.03
2018-08-25T12:59:37.948Z,18.92
2018-08-25T13:04:42.436Z,18.83
2018-08-25T13:09:45.994Z,18.75
2018-08-25T13:14:49.755Z,18.45
2018-08-25T13:19:53.238Z,18.83
2018-08-25T13:24:56.817Z,19.28
2018-08-25T13:30:00.254Z,19.17
2018-08-25T13:35:03.832Z,18.76
2018-08-25T13:40:07.438Z,18.61
2018-08-25T13:45:10.948Z,18.25
2018-08-25T13:50:14.430Z,18.27
2018-08-25T13:55:18.016Z,18.19
2018-08-25T14:00:33.598Z,18.36
2018-08-25T14:05:37.156Z,17.36
2018-08-25T14:10:40.622Z,16.24
2018-08-25T14:15:44.126Z,15.81
2018-08-25T14:20:47.647Z,15.18
2018-08-25T14:25:51.158Z,14.94
2018-08-25T14:30:54.644Z,14.80
2018-08-25T14:35:58.247Z,14.66
2018-08-25T14:41:01.995Z,14.12
2018-08-25T14:46:05.676Z,13.74
2018-08-25T14:51:09.129Z,13.61
2018-08-25T14:56:12.674Z,13.71
2018-08-25T15:01:18.208Z,13.83
2018-08-25T15:06:21.683Z,14.12
2018-08-25T15:11:25.529Z,14.58
2018-08-25T15:16:29.100Z,15.18
2018-08-25T15:21:32.725Z,15.81
2018-08-25T15:26:36.348Z,15.90
2018-08-25T15:31:39.892Z,16.13
2018-08-25T15:36:43.487Z,15.97
2018-08-25T15:41:47.016Z,16.03
2018-08-25T15:46:50.488Z,16.01
2018-08-25T15:51:54.130Z,15.95
2018-08-25T15:56:57.521Z,15.88
2018-08-25T16:02:01.484Z,15.79
2018-08-25T16:07:05.394Z,15.87
2018-08-25T16:12:09.048Z,16.12
2018-08-25T16:17:12.581Z,16.17
2018-08-25T16:22:16.690Z,16.11
2018-08-25T16:27:20.321Z,16.10
2018-08-25T16:32:23.866Z,16.31
2018-08-25T16:37:27.386Z,16.42
2018-08-25T16:42:30.958Z,16.26
2018-08-25T16:47:34.477Z,16.05
2018-08-25T16:52:38.017Z,16.08
2018-08-25T16:57:41.864Z,15.94
2018-08-25T17:02:45.430Z,15.83
2018-08-25T17:07:49.041Z,15.57
2018-08-25T17:12:52.576Z,15.30
2018-08-25T17:17:56.214Z,15.18
2018-08-25T17:22:59.861Z,15.14
2018-08-25T17:28:03.358Z,15.04
2018-08-25T17:33:07.177Z,14.67
2018-08-25T17:38:10.694Z,14.39
2018-08-25T17:43:14.443Z,14.28
2018-08-25T17:48:17.966Z,14.25
2018-08-25T17:53:21.711Z,14.12
2018-08-25T17:58:25.215Z,14.07
2018-08-25T18:03:28.744Z,13.99
2018-08-25T18:08:32.270Z,13.91
2018-08-25T18:13:35.810Z,13.68
2018-08-25T18:18:39.341Z,13.53
2018-08-25T18:23:43.309Z,13.39
2018-08-25T18:28:46.862Z,13.35
2018-08-25T18:33:50.530Z,13.33
2018-08-25T18:38:55.707Z,13.34
2018-08-25T18:43:59.293Z,13.25
2018-08-25T18:49:02.851Z,13.09
2018-08-25T18:54:06.449Z,13.03
2018-08-25T18:59:10.060Z,13.03
2018-08-25T19:04:13.736Z,13.12
2018-08-25T19:09:17.297Z,13.13
2018-08-25T19:14:20.963Z,13.18
2018-08-25T19:19:24.522Z,13.22
2018-08-25T19:24:28.205Z,13.20
2018-08-25T19:29:31.669Z,13.20
2018-08-25T19:34:35.269Z,13.20
2018-08-25T19:39:39.687Z,13.14
2018-08-25T19:44:43.415Z,13.16
2018-08-25T19:49:47.156Z,13.07
2018-08-25T19:54:50.887Z,12.99
2018-08-25T19:59:54.435Z,12.89
2018-08-25T20:04:57.985Z,12.79
2018-08-25T20:10:01.553Z,12.72
2018-08-25T20:15:05.311Z,12.63
2018-08-25T20:20:08.892Z,12.59
2018-08-25T20:25:12.471Z,12.57
2018-08-25T20:30:17.233Z,12.52
2018-08-25T20:35:20.736Z,12.45
2018-08-25T20:40:24.577Z,12.47
2018-08-25T20:45:28.371Z,12.43
2018-08-25T20:50:31.871Z,12.53
2018-08-25T20:55:35.431Z,12.53
2018-08-25T21:00:38.962Z,12.54
2018-08-25T21:05:42.482Z,12.47
2018-08-25T21:10:46.033Z,12.45
2018-08-25T21:15:56.219Z,12.46
2018-08-25T21:20:59.753Z,12.40
2018-08-25T21:26:03.343Z,12.35
2018-08-25T21:31:06.855Z,12.24
2018-08-25T21:36:10.399Z,12.14
2018-08-25T21:41:13.985Z,12.07
2018-08-25T21:46:17.520Z,11.99
2018-08-25T21:51:21.337Z,11.83
2018-08-25T21:56:24.884Z,11.87
2018-08-25T22:01:32.565Z,11.74
2018-08-25T22:06:36.103Z,11.68
2018-08-25T22:11:39.907Z,11.65
2018-08-25T22:16:43.584Z,11.54
2018-08-25T22:21:47.140Z,11.43
2018-08-25T22:26:50.901Z,11.40
2018-08-25T22:31:54.461Z,11.36
2018-08-25T22:36:57.941Z,11.28
2018-08-25T22:42:01.669Z,11.23
2018-08-25T22:47:05.291Z,11.22
2018-08-25T22:52:08.956Z,11.16
2018-08-25T22:57:13.026Z,11.11
2018-08-25T23:02:16.613Z,11.04
2018-08-25T23:07:20.514Z,11.10
2018-08-25T23:12:24.245Z,11.07
2018-08-25T23:17:28.103Z,11.07
2018-08-25T23:22:31.616Z,11.03
2018-08-25T23:27:35.196Z,10.99
2018-08-25T23:32:38.763Z,10.87
2018-08-25T23:37:42.325Z,10.81
2018-08-25T23:42:45.850Z,10.70
2018-08-25T23:47:49.376Z,10.66
2018-08-25T23:52:52.891Z,10.63
2018-08-25T23:57:56.641Z,10.63
